Griffith, Indiana
Current Conditions -  °F | °C
As of 6:35 AM on Monday 24 Nov 2014 (Local Time) from KIGQ Reporting Station
Haze Haze  
Wind Chill: 46°   Ceiling: 200
Heat Index: 48°   Visibility: 2mi
Dew Point: 48°   Wind: 5mph
Humidity: 99%   Direction: 200°SSW
Pressure: 29.09"   Gusts: NA
Location:  41.52°N, 87.43°W
Report Text: KIGQ 241235Z AUTO 20004KT 2SM BR OVC002 09/09 A2909 RMK AO2 T00900088
Loading
Personal Weather Stations






























Interactive Weather Map New forecast layout! Learn more

10-Day Weather Forecast

Advertisements
Track Severe Weather on mobile